sensor_id;sensor_type;location;lat;lon;timestamp;P1;durP1;ratioP1;P2;durP2;ratioP2
8411;SDS011;4243;49.296;11.348;2022-08-04T00:01:21;123.57;;;10.10;;
8411;SDS011;4243;49.296;11.348;2022-08-04T00:09:38;124.40;;;12.83;;
8411;SDS011;4243;49.296;11.348;2022-08-04T00:12:18;125.67;;;13.03;;
8411;SDS011;4243;49.296;11.348;2022-08-04T00:14:57;124.47;;;12.90;;
8411;SDS011;4243;49.296;11.348;2022-08-04T00:17:28;125.27;;;14.77;;
8411;SDS011;4243;49.296;11.348;2022-08-04T00:20:04;125.80;;;14.50;;
8411;SDS011;4243;49.296;11.348;2022-08-04T00:22:34;127.80;;;16.13;;
8411;SDS011;4243;49.296;11.348;2022-08-04T00:25:05;125.83;;;14.10;;
8411;SDS011;4243;49.296;11.348;2022-08-04T00:27:33;127.10;;;15.57;;
8411;SDS011;4243;49.296;11.348;2022-08-04T00:30:01;126.93;;;16.33;;
8411;SDS011;4243;49.296;11.348;2022-08-04T00:32:31;124.70;;;15.67;;
8411;SDS011;4243;49.296;11.348;2022-08-04T00:35:00;126.80;;;16.33;;
8411;SDS011;4243;49.296;11.348;2022-08-04T00:37:28;126.97;;;15.67;;
8411;SDS011;4243;49.296;11.348;2022-08-04T00:39:58;125.37;;;15.27;;
8411;SDS011;4243;49.296;11.348;2022-08-04T00:45:32;125.90;;;13.30;;
8411;SDS011;4243;49.296;11.348;2022-08-04T00:51:49;123.53;;;11.27;;
8411;SDS011;4243;49.296;11.348;2022-08-04T00:55:22;124.77;;;11.67;;
8411;SDS011;4243;49.296;11.348;2022-08-04T00:58:22;125.50;;;12.50;;
8411;SDS011;4243;49.296;11.348;2022-08-04T01:29:20;125.17;;;12.97;;
8411;SDS011;4243;49.296;11.348;2022-08-04T01:38:13;125.87;;;12.93;;
8411;SDS011;4243;49.296;11.348;2022-08-04T01:40:52;125.20;;;13.53;;
8411;SDS011;4243;49.296;11.348;2022-08-04T01:43:26;126.67;;;14.50;;
8411;SDS011;4243;49.296;11.348;2022-08-04T01:45:56;126.40;;;14.47;;
8411;SDS011;4243;49.296;11.348;2022-08-04T01:48:27;126.13;;;13.50;;
8411;SDS011;4243;49.296;11.348;2022-08-04T01:51:04;126.07;;;13.60;;
8411;SDS011;4243;49.296;11.348;2022-08-04T01:53:36;125.90;;;14.13;;
8411;SDS011;4243;49.296;11.348;2022-08-04T01:56:10;125.27;;;11.93;;
8411;SDS011;4243;49.296;11.348;2022-08-04T01:58:38;125.80;;;13.40;;
8411;SDS011;4243;49.296;11.348;2022-08-04T02:01:07;124.80;;;11.60;;
8411;SDS011;4243;49.296;11.348;2022-08-04T02:03:38;123.17;;;11.10;;
8411;SDS011;4243;49.296;11.348;2022-08-04T02:09:22;124.17;;;10.10;;
8411;SDS011;4243;49.296;11.348;2022-08-04T02:15:29;123.97;;;10.90;;
8411;SDS011;4243;49.296;11.348;2022-08-04T02:21:11;124.13;;;10.87;;
8411;SDS011;4243;49.296;11.348;2022-08-04T02:23:42;124.50;;;11.50;;
8411;SDS011;4243;49.296;11.348;2022-08-04T02:26:20;124.17;;;11.47;;
8411;SDS011;4243;49.296;11.348;2022-08-04T02:32:02;123.97;;;10.00;;
8411;SDS011;4243;49.296;11.348;2022-08-04T02:34:43;125.53;;;13.67;;
8411;SDS011;4243;49.296;11.348;2022-08-04T02:37:21;125.00;;;12.60;;
8411;SDS011;4243;49.296;11.348;2022-08-04T02:39:52;125.87;;;13.53;;
8411;SDS011;4243;49.296;11.348;2022-08-04T02:42:19;125.37;;;12.73;;
8411;SDS011;4243;49.296;11.348;2022-08-04T02:44:49;125.20;;;12.93;;
8411;SDS011;4243;49.296;11.348;2022-08-04T02:47:19;125.17;;;13.33;;
8411;SDS011;4243;49.296;11.348;2022-08-04T02:49:48;123.70;;;12.80;;
8411;SDS011;4243;49.296;11.348;2022-08-04T02:52:18;124.57;;;12.33;;
8411;SDS011;4243;49.296;11.348;2022-08-04T02:54:53;125.10;;;13.57;;
8411;SDS011;4243;49.296;11.348;2022-08-04T02:57:24;124.43;;;12.67;;
8411;SDS011;4243;49.296;11.348;2022-08-04T03:05:53;123.60;;;11.40;;
8411;SDS011;4243;49.296;11.348;2022-08-04T03:09:13;124.10;;;12.47;;
8411;SDS011;4243;49.296;11.348;2022-08-04T03:19:09;124.77;;;12.60;;
8411;SDS011;4243;49.296;11.348;2022-08-04T03:25:52;123.17;;;10.90;;
8411;SDS011;4243;49.296;11.348;2022-08-04T03:31:33;123.70;;;11.27;;
8411;SDS011;4243;49.296;11.348;2022-08-04T03:51:32;122.90;;;9.30;;
8411;SDS011;4243;49.296;11.348;2022-08-04T04:05:25;122.63;;;9.70;;
8411;SDS011;4243;49.296;11.348;2022-08-04T04:15:38;122.90;;;10.17;;
8411;SDS011;4243;49.296;11.348;2022-08-04T04:22:34;122.90;;;10.77;;
8411;SDS011;4243;49.296;11.348;2022-08-04T04:25:41;122.37;;;10.97;;
8411;SDS011;4243;49.296;11.348;2022-08-04T04:35:05;123.70;;;11.50;;
8411;SDS011;4243;49.296;11.348;2022-08-04T04:47:26;122.53;;;10.13;;
8411;SDS011;4243;49.296;11.348;2022-08-04T04:56:39;121.87;;;11.67;;
8411;SDS011;4243;49.296;11.348;2022-08-04T04:59:18;122.20;;;11.03;;
8411;SDS011;4243;49.296;11.348;2022-08-04T05:05:12;122.43;;;11.60;;
8411;SDS011;4243;49.296;11.348;2022-08-04T05:14:25;120.87;;;9.20;;
8411;SDS011;4243;49.296;11.348;2022-08-04T05:26:22;120.43;;;9.30;;
8411;SDS011;4243;49.296;11.348;2022-08-04T05:31:25;119.47;;;9.87;;
8411;SDS011;4243;49.296;11.348;2022-08-04T05:36:38;121.10;;;9.90;;
8411;SDS011;4243;49.296;11.348;2022-08-04T05:39:18;120.60;;;10.03;;
8411;SDS011;4243;49.296;11.348;2022-08-04T05:41:50;120.17;;;8.87;;
8411;SDS011;4243;49.296;11.348;2022-08-04T05:44:23;119.43;;;8.93;;
8411;SDS011;4243;49.296;11.348;2022-08-04T05:46:56;118.37;;;8.60;;
8411;SDS011;4243;49.296;11.348;2022-08-04T05:49:26;119.37;;;8.83;;
8411;SDS011;4243;49.296;11.348;2022-08-04T05:51:56;118.63;;;8.40;;
8411;SDS011;4243;49.296;11.348;2022-08-04T05:54:29;118.17;;;7.73;;
8411;SDS011;4243;49.296;11.348;2022-08-04T05:56:58;117.63;;;5.93;;
8411;SDS011;4243;49.296;11.348;2022-08-04T05:59:28;117.03;;;5.90;;
8411;SDS011;4243;49.296;11.348;2022-08-04T06:01:58;117.10;;;5.77;;
8411;SDS011;4243;49.296;11.348;2022-08-04T06:04:36;117.23;;;6.37;;
8411;SDS011;4243;49.296;11.348;2022-08-04T06:07:06;117.13;;;7.00;;
8411;SDS011;4243;49.296;11.348;2022-08-04T06:09:36;119.33;;;10.53;;
8411;SDS011;4243;49.296;11.348;2022-08-04T06:12:14;119.00;;;10.77;;
8411;SDS011;4243;49.296;11.348;2022-08-04T06:15:06;122.37;;;16.77;;
8411;SDS011;4243;49.296;11.348;2022-08-04T06:17:45;127.13;;;25.77;;
8411;SDS011;4243;49.296;11.348;2022-08-04T06:20:41;129.00;;;27.03;;
8411;SDS011;4243;49.296;11.348;2022-08-04T06:23:16;126.70;;;25.00;;
8411;SDS011;4243;49.296;11.348;2022-08-04T06:25:52;124.93;;;22.27;;
8411;SDS011;4243;49.296;11.348;2022-08-04T06:28:24;124.60;;;22.00;;
8411;SDS011;4243;49.296;11.348;2022-08-04T06:30:56;123.43;;;20.10;;
8411;SDS011;4243;49.296;11.348;2022-08-04T06:33:48;123.17;;;20.10;;
8411;SDS011;4243;49.296;11.348;2022-08-04T06:36:20;121.87;;;17.50;;
8411;SDS011;4243;49.296;11.348;2022-08-04T06:38:48;121.97;;;18.33;;
8411;SDS011;4243;49.296;11.348;2022-08-04T06:41:24;120.90;;;16.43;;
8411;SDS011;4243;49.296;11.348;2022-08-04T06:43:54;120.40;;;15.50;;
8411;SDS011;4243;49.296;11.348;2022-08-04T06:46:29;120.07;;;13.60;;
8411;SDS011;4243;49.296;11.348;2022-08-04T06:48:57;118.17;;;11.97;;
8411;SDS011;4243;49.296;11.348;2022-08-04T06:51:25;117.07;;;10.00;;
8411;SDS011;4243;49.296;11.348;2022-08-04T06:54:10;116.07;;;8.87;;
8411;SDS011;4243;49.296;11.348;2022-08-04T06:56:37;115.97;;;8.60;;
8411;SDS011;4243;49.296;11.348;2022-08-04T06:59:06;115.80;;;9.10;;
8411;SDS011;4243;49.296;11.348;2022-08-04T07:01:36;116.37;;;10.30;;
8411;SDS011;4243;49.296;11.348;2022-08-04T07:04:05;117.10;;;10.67;;
8411;SDS011;4243;49.296;11.348;2022-08-04T07:06:33;116.87;;;11.17;;
8411;SDS011;4243;49.296;11.348;2022-08-04T07:09:01;117.97;;;12.87;;
8411;SDS011;4243;49.296;11.348;2022-08-04T07:11:32;118.03;;;13.47;;
8411;SDS011;4243;49.296;11.348;2022-08-04T07:14:09;118.20;;;14.07;;
8411;SDS011;4243;49.296;11.348;2022-08-04T07:16:37;117.67;;;12.03;;
8411;SDS011;4243;49.296;11.348;2022-08-04T07:19:07;116.43;;;11.27;;
8411;SDS011;4243;49.296;11.348;2022-08-04T07:21:36;116.07;;;11.07;;
8411;SDS011;4243;49.296;11.348;2022-08-04T07:24:04;115.90;;;10.50;;
8411;SDS011;4243;49.296;11.348;2022-08-04T07:26:32;115.20;;;9.40;;
8411;SDS011;4243;49.296;11.348;2022-08-04T07:29:00;114.97;;;8.97;;
8411;SDS011;4243;49.296;11.348;2022-08-04T07:31:28;114.30;;;9.13;;
8411;SDS011;4243;49.296;11.348;2022-08-04T07:34:01;115.77;;;10.10;;
8411;SDS011;4243;49.296;11.348;2022-08-04T07:36:47;115.27;;;9.77;;
8411;SDS011;4243;49.296;11.348;2022-08-04T07:39:22;116.17;;;11.03;;
8411;SDS011;4243;49.296;11.348;2022-08-04T07:41:55;115.10;;;11.20;;
8411;SDS011;4243;49.296;11.348;2022-08-04T07:44:28;114.07;;;11.00;;
8411;SDS011;4243;49.296;11.348;2022-08-04T07:47:01;115.30;;;12.20;;
8411;SDS011;4243;49.296;11.348;2022-08-04T07:49:32;114.00;;;10.80;;
8411;SDS011;4243;49.296;11.348;2022-08-04T07:52:20;112.27;;;9.00;;
8411;SDS011;4243;49.296;11.348;2022-08-04T07:54:48;113.70;;;11.50;;
8411;SDS011;4243;49.296;11.348;2022-08-04T07:57:17;114.00;;;13.87;;
8411;SDS011;4243;49.296;11.348;2022-08-04T08:00:07;122.77;;;30.67;;
8411;SDS011;4243;49.296;11.348;2022-08-04T08:03:37;132.00;;;44.83;;
8411;SDS011;4243;49.296;11.348;2022-08-04T08:06:06;131.50;;;42.80;;
8411;SDS011;4243;49.296;11.348;2022-08-04T08:08:55;125.87;;;30.23;;
8411;SDS011;4243;49.296;11.348;2022-08-04T08:11:23;116.33;;;19.37;;
8411;SDS011;4243;49.296;11.348;2022-08-04T08:14:11;114.87;;;18.07;;
8411;SDS011;4243;49.296;11.348;2022-08-04T08:16:41;112.97;;;16.17;;
8411;SDS011;4243;49.296;11.348;2022-08-04T08:19:09;113.37;;;16.97;;
8411;SDS011;4243;49.296;11.348;2022-08-04T08:21:38;114.97;;;20.27;;
8411;SDS011;4243;49.296;11.348;2022-08-04T08:24:29;115.27;;;22.57;;
8411;SDS011;4243;49.296;11.348;2022-08-04T08:27:01;118.50;;;28.70;;
8411;SDS011;4243;49.296;11.348;2022-08-04T08:29:30;120.50;;;34.43;;
8411;SDS011;4243;49.296;11.348;2022-08-04T08:32:00;111.77;;;19.13;;
8411;SDS011;4243;49.296;11.348;2022-08-04T08:34:34;106.77;;;10.63;;
8411;SDS011;4243;49.296;11.348;2022-08-04T08:49:29;106.57;;;10.30;;
8411;SDS011;4243;49.296;11.348;2022-08-04T09:04:42;105.70;;;11.37;;
8411;SDS011;4243;49.296;11.348;2022-08-04T09:07:57;106.57;;;13.37;;
8411;SDS011;4243;49.296;11.348;2022-08-04T09:14:09;111.87;;;22.17;;
8411;SDS011;4243;49.296;11.348;2022-08-04T09:16:53;114.67;;;29.17;;
8411;SDS011;4243;49.296;11.348;2022-08-04T09:19:32;113.20;;;26.27;;
8411;SDS011;4243;49.296;11.348;2022-08-04T09:24:47;112.07;;;24.60;;
8411;SDS011;4243;49.296;11.348;2022-08-04T09:27:25;111.73;;;24.87;;
8411;SDS011;4243;49.296;11.348;2022-08-04T09:30:18;114.57;;;30.57;;
8411;SDS011;4243;49.296;11.348;2022-08-04T09:39:03;117.77;;;37.50;;
8411;SDS011;4243;49.296;11.348;2022-08-04T09:42:00;109.47;;;24.83;;
8411;SDS011;4243;49.296;11.348;2022-08-04T09:47:59;120.00;;;42.30;;
8411;SDS011;4243;49.296;11.348;2022-08-04T09:50:37;115.73;;;34.10;;
8411;SDS011;4243;49.296;11.348;2022-08-04T09:53:35;111.30;;;26.23;;
8411;SDS011;4243;49.296;11.348;2022-08-04T09:56:40;107.60;;;20.60;;
8411;SDS011;4243;49.296;11.348;2022-08-04T09:59:45;106.67;;;18.37;;
8411;SDS011;4243;49.296;11.348;2022-08-04T10:02:39;104.07;;;15.97;;
8411;SDS011;4243;49.296;11.348;2022-08-04T10:05:11;102.57;;;12.87;;
8411;SDS011;4243;49.296;11.348;2022-08-04T10:08:01;101.40;;;10.50;;
8411;SDS011;4243;49.296;11.348;2022-08-04T10:11:42;100.40;;;7.40;;
8411;SDS011;4243;49.296;11.348;2022-08-04T10:17:41;101.67;;;10.47;;
8411;SDS011;4243;49.296;11.348;2022-08-04T10:23:22;100.40;;;9.87;;
8411;SDS011;4243;49.296;11.348;2022-08-04T10:29:23;101.50;;;9.43;;
8411;SDS011;4243;49.296;11.348;2022-08-04T10:32:28;103.47;;;11.97;;
8411;SDS011;4243;49.296;11.348;2022-08-04T10:35:12;104.40;;;13.20;;
8411;SDS011;4243;49.296;11.348;2022-08-04T10:37:59;103.37;;;12.13;;
8411;SDS011;4243;49.296;11.348;2022-08-04T10:40:46;104.80;;;12.70;;
8411;SDS011;4243;49.296;11.348;2022-08-04T10:48:55;101.00;;;9.30;;
8411;SDS011;4243;49.296;11.348;2022-08-04T10:51:41;99.57;;;7.17;;
8411;SDS011;4243;49.296;11.348;2022-08-04T10:57:40;98.70;;;6.80;;
8411;SDS011;4243;49.296;11.348;2022-08-04T11:00:12;97.70;;;4.83;;
8411;SDS011;4243;49.296;11.348;2022-08-04T11:05:38;97.17;;;5.33;;
8411;SDS011;4243;49.296;11.348;2022-08-04T11:08:17;98.67;;;7.03;;
8411;SDS011;4243;49.296;11.348;2022-08-04T11:11:10;99.27;;;8.80;;
8411;SDS011;4243;49.296;11.348;2022-08-04T11:13:48;100.70;;;11.67;;
8411;SDS011;4243;49.296;11.348;2022-08-04T11:23:07;100.07;;;13.30;;
8411;SDS011;4243;49.296;11.348;2022-08-04T11:26:01;99.87;;;12.70;;
8411;SDS011;4243;49.296;11.348;2022-08-04T11:31:33;98.47;;;11.37;;
8411;SDS011;4243;49.296;11.348;2022-08-04T11:39:43;100.07;;;17.63;;
8411;SDS011;4243;49.296;11.348;2022-08-04T11:42:22;102.07;;;19.90;;
8411;SDS011;4243;49.296;11.348;2022-08-04T11:50:28;101.03;;;16.67;;
8411;SDS011;4243;49.296;11.348;2022-08-04T11:53:00;101.63;;;19.90;;
8411;SDS011;4243;49.296;11.348;2022-08-04T11:55:29;102.97;;;22.40;;
8411;SDS011;4243;49.296;11.348;2022-08-04T11:58:21;101.97;;;17.90;;
8411;SDS011;4243;49.296;11.348;2022-08-04T12:01:05;103.10;;;20.07;;
8411;SDS011;4243;49.296;11.348;2022-08-04T12:06:44;102.10;;;18.33;;
8411;SDS011;4243;49.296;11.348;2022-08-04T12:10:02;102.17;;;18.73;;
8411;SDS011;4243;49.296;11.348;2022-08-04T12:21:22;99.17;;;11.13;;
8411;SDS011;4243;49.296;11.348;2022-08-04T12:24:19;100.57;;;15.37;;
8411;SDS011;4243;49.296;11.348;2022-08-04T12:26:56;102.37;;;18.07;;
8411;SDS011;4243;49.296;11.348;2022-08-04T12:29:30;103.73;;;22.07;;
8411;SDS011;4243;49.296;11.348;2022-08-04T12:32:03;103.67;;;22.70;;
8411;SDS011;4243;49.296;11.348;2022-08-04T12:35:02;107.20;;;26.57;;
8411;SDS011;4243;49.296;11.348;2022-08-04T12:38:04;107.87;;;28.27;;
8411;SDS011;4243;49.296;11.348;2022-08-04T12:40:54;104.50;;;22.97;;
8411;SDS011;4243;49.296;11.348;2022-08-04T12:46:11;103.87;;;19.20;;
8411;SDS011;4243;49.296;11.348;2022-08-04T12:48:50;103.10;;;18.03;;
8411;SDS011;4243;49.296;11.348;2022-08-04T12:51:18;102.80;;;17.80;;
8411;SDS011;4243;49.296;11.348;2022-08-04T12:54:08;104.00;;;19.77;;
8411;SDS011;4243;49.296;11.348;2022-08-04T12:56:39;103.57;;;19.47;;
8411;SDS011;4243;49.296;11.348;2022-08-04T12:59:07;104.40;;;20.27;;
8411;SDS011;4243;49.296;11.348;2022-08-04T13:01:38;103.50;;;18.63;;
8411;SDS011;4243;49.296;11.348;2022-08-04T13:04:32;104.10;;;19.70;;
8411;SDS011;4243;49.296;11.348;2022-08-04T13:07:09;105.57;;;21.90;;
8411;SDS011;4243;49.296;11.348;2022-08-04T13:09:52;104.07;;;20.07;;
8411;SDS011;4243;49.296;11.348;2022-08-04T13:12:25;106.30;;;24.70;;
8411;SDS011;4243;49.296;11.348;2022-08-04T13:14:59;108.80;;;29.57;;
8411;SDS011;4243;49.296;11.348;2022-08-04T13:17:45;107.07;;;26.27;;
8411;SDS011;4243;49.296;11.348;2022-08-04T13:20:26;105.67;;;24.10;;
8411;SDS011;4243;49.296;11.348;2022-08-04T13:23:07;109.63;;;30.07;;
8411;SDS011;4243;49.296;11.348;2022-08-04T13:25:42;113.07;;;35.80;;
8411;SDS011;4243;49.296;11.348;2022-08-04T13:28:32;109.77;;;32.37;;
8411;SDS011;4243;49.296;11.348;2022-08-04T13:31:10;113.37;;;36.93;;
8411;SDS011;4243;49.296;11.348;2022-08-04T13:33:44;110.60;;;33.97;;
8411;SDS011;4243;49.296;11.348;2022-08-04T13:36:17;111.20;;;33.30;;
8411;SDS011;4243;49.296;11.348;2022-08-04T13:41:28;109.90;;;31.30;;
8411;SDS011;4243;49.296;11.348;2022-08-04T13:43:57;114.90;;;38.80;;
8411;SDS011;4243;49.296;11.348;2022-08-04T13:46:55;113.40;;;37.13;;
8411;SDS011;4243;49.296;11.348;2022-08-04T13:49:36;111.50;;;35.20;;
8411;SDS011;4243;49.296;11.348;2022-08-04T13:52:24;112.97;;;36.33;;
8411;SDS011;4243;49.296;11.348;2022-08-04T13:54:52;114.77;;;37.97;;
8411;SDS011;4243;49.296;11.348;2022-08-04T13:57:21;116.83;;;39.37;;
8411;SDS011;4243;49.296;11.348;2022-08-04T14:00:03;118.67;;;41.53;;
8411;SDS011;4243;49.296;11.348;2022-08-04T14:02:43;118.73;;;42.87;;
8411;SDS011;4243;49.296;11.348;2022-08-04T14:05:25;119.07;;;43.47;;
8411;SDS011;4243;49.296;11.348;2022-08-04T14:08:06;121.70;;;47.10;;
8411;SDS011;4243;49.296;11.348;2022-08-04T14:10:40;119.63;;;43.23;;
8411;SDS011;4243;49.296;11.348;2022-08-04T14:13:08;118.77;;;42.10;;
8411;SDS011;4243;49.296;11.348;2022-08-04T14:15:40;118.23;;;42.03;;
8411;SDS011;4243;49.296;11.348;2022-08-04T14:18:30;116.00;;;38.87;;
8411;SDS011;4243;49.296;11.348;2022-08-04T14:21:03;119.20;;;43.23;;
8411;SDS011;4243;49.296;11.348;2022-08-04T14:23:38;115.90;;;40.27;;
8411;SDS011;4243;49.296;11.348;2022-08-04T14:26:33;115.90;;;39.03;;
8411;SDS011;4243;49.296;11.348;2022-08-04T14:29:06;116.17;;;39.97;;
8411;SDS011;4243;49.296;11.348;2022-08-04T14:32:01;117.03;;;41.73;;
8411;SDS011;4243;49.296;11.348;2022-08-04T14:34:40;115.80;;;40.20;;
8411;SDS011;4243;49.296;11.348;2022-08-04T14:37:15;113.07;;;37.40;;
8411;SDS011;4243;49.296;11.348;2022-08-04T14:39:50;109.87;;;32.70;;
8411;SDS011;4243;49.296;11.348;2022-08-04T14:42:43;104.00;;;26.47;;
8411;SDS011;4243;49.296;11.348;2022-08-04T14:48:20;114.47;;;39.97;;
8411;SDS011;4243;49.296;11.348;2022-08-04T14:50:48;115.97;;;40.97;;
8411;SDS011;4243;49.296;11.348;2022-08-04T14:53:18;113.70;;;37.30;;
8411;SDS011;4243;49.296;11.348;2022-08-04T14:55:52;114.03;;;37.90;;
8411;SDS011;4243;49.296;11.348;2022-08-04T14:58:26;114.40;;;38.47;;
8411;SDS011;4243;49.296;11.348;2022-08-04T15:01:04;113.17;;;36.70;;
8411;SDS011;4243;49.296;11.348;2022-08-04T15:03:44;111.90;;;34.07;;
8411;SDS011;4243;49.296;11.348;2022-08-04T15:06:16;110.40;;;32.60;;
8411;SDS011;4243;49.296;11.348;2022-08-04T15:08:48;113.17;;;37.27;;
8411;SDS011;4243;49.296;11.348;2022-08-04T15:11:19;112.53;;;35.97;;
8411;SDS011;4243;49.296;11.348;2022-08-04T15:13:50;114.07;;;38.37;;
8411;SDS011;4243;49.296;11.348;2022-08-04T15:16:19;114.87;;;39.17;;
8411;SDS011;4243;49.296;11.348;2022-08-04T15:18:48;112.37;;;36.50;;
8411;SDS011;4243;49.296;11.348;2022-08-04T15:21:20;113.70;;;37.13;;
8411;SDS011;4243;49.296;11.348;2022-08-04T15:23:49;118.00;;;43.80;;
8411;SDS011;4243;49.296;11.348;2022-08-04T15:26:38;124.33;;;52.43;;
8411;SDS011;4243;49.296;11.348;2022-08-04T15:29:10;123.83;;;50.30;;
8411;SDS011;4243;49.296;11.348;2022-08-04T15:31:43;125.60;;;52.80;;
8411;SDS011;4243;49.296;11.348;2022-08-04T15:34:45;125.63;;;53.87;;
8411;SDS011;4243;49.296;11.348;2022-08-04T15:37:22;123.60;;;50.33;;
8411;SDS011;4243;49.296;11.348;2022-08-04T15:40:21;120.07;;;44.83;;
8411;SDS011;4243;49.296;11.348;2022-08-04T15:49:36;117.63;;;40.80;;
8411;SDS011;4243;49.296;11.348;2022-08-04T15:52:08;118.90;;;42.50;;
8411;SDS011;4243;49.296;11.348;2022-08-04T15:54:38;118.87;;;43.93;;
8411;SDS011;4243;49.296;11.348;2022-08-04T15:57:15;119.63;;;44.00;;
8411;SDS011;4243;49.296;11.348;2022-08-04T16:00:18;120.17;;;44.60;;
8411;SDS011;4243;49.296;11.348;2022-08-04T16:02:46;123.60;;;42.77;;
8411;SDS011;4243;49.296;11.348;2022-08-04T16:07:53;120.10;;;43.93;;
8411;SDS011;4243;49.296;11.348;2022-08-04T16:12:58;110.27;;;26.03;;
8411;SDS011;4243;49.296;11.348;2022-08-04T16:20:55;112.67;;;28.50;;
8411;SDS011;4243;49.296;11.348;2022-08-04T16:34:46;122.50;;;38.73;;
8411;SDS011;4243;49.296;11.348;2022-08-04T16:37:35;130.50;;;49.90;;
8411;SDS011;4243;49.296;11.348;2022-08-04T16:43:13;121.40;;;36.30;;
8411;SDS011;4243;49.296;11.348;2022-08-04T16:48:22;123.30;;;36.17;;
8411;SDS011;4243;49.296;11.348;2022-08-04T16:51:05;124.67;;;37.87;;
8411;SDS011;4243;49.296;11.348;2022-08-04T16:53:41;126.10;;;35.77;;
8411;SDS011;4243;49.296;11.348;2022-08-04T16:56:20;122.80;;;32.20;;
8411;SDS011;4243;49.296;11.348;2022-08-04T16:59:04;118.67;;;20.17;;
8411;SDS011;4243;49.296;11.348;2022-08-04T17:01:47;115.27;;;15.30;;
8411;SDS011;4243;49.296;11.348;2022-08-04T17:04:31;131.67;;;18.87;;
8411;SDS011;4243;49.296;11.348;2022-08-04T17:07:04;117.60;;;20.00;;
8411;SDS011;4243;49.296;11.348;2022-08-04T17:09:32;115.27;;;18.63;;
8411;SDS011;4243;49.296;11.348;2022-08-04T17:12:00;116.37;;;20.50;;
8411;SDS011;4243;49.296;11.348;2022-08-04T17:14:29;118.47;;;22.93;;
8411;SDS011;4243;49.296;11.348;2022-08-04T17:16:58;121.13;;;22.97;;
8411;SDS011;4243;49.296;11.348;2022-08-04T17:19:28;117.90;;;22.67;;
8411;SDS011;4243;49.296;11.348;2022-08-04T17:21:56;117.07;;;21.33;;
8411;SDS011;4243;49.296;11.348;2022-08-04T17:24:36;116.87;;;20.80;;
8411;SDS011;4243;49.296;11.348;2022-08-04T17:27:06;117.37;;;20.20;;
8411;SDS011;4243;49.296;11.348;2022-08-04T17:29:53;115.20;;;17.17;;
8411;SDS011;4243;49.296;11.348;2022-08-04T17:32:21;114.50;;;15.57;;
8411;SDS011;4243;49.296;11.348;2022-08-04T17:34:50;113.43;;;13.77;;
8411;SDS011;4243;49.296;11.348;2022-08-04T17:37:23;113.17;;;13.37;;
8411;SDS011;4243;49.296;11.348;2022-08-04T17:40:07;112.50;;;12.00;;
8411;SDS011;4243;49.296;11.348;2022-08-04T17:43:00;118.27;;;11.90;;
8411;SDS011;4243;49.296;11.348;2022-08-04T17:46:12;112.70;;;11.90;;
8411;SDS011;4243;49.296;11.348;2022-08-04T17:54:33;111.70;;;10.03;;
8411;SDS011;4243;49.296;11.348;2022-08-04T17:57:18;111.37;;;9.33;;
8411;SDS011;4243;49.296;11.348;2022-08-04T17:59:51;112.10;;;9.70;;
8411;SDS011;4243;49.296;11.348;2022-08-04T18:02:29;112.10;;;9.17;;
8411;SDS011;4243;49.296;11.348;2022-08-04T18:05:03;112.50;;;9.97;;
8411;SDS011;4243;49.296;11.348;2022-08-04T18:07:40;112.70;;;10.70;;
8411;SDS011;4243;49.296;11.348;2022-08-04T18:10:35;113.97;;;12.77;;
8411;SDS011;4243;49.296;11.348;2022-08-04T18:13:25;115.47;;;14.90;;
8411;SDS011;4243;49.296;11.348;2022-08-04T18:16:03;118.07;;;19.10;;
8411;SDS011;4243;49.296;11.348;2022-08-04T18:19:06;120.17;;;22.60;;
8411;SDS011;4243;49.296;11.348;2022-08-04T18:21:38;119.20;;;20.67;;
8411;SDS011;4243;49.296;11.348;2022-08-04T18:24:25;122.90;;;26.10;;
8411;SDS011;4243;49.296;11.348;2022-08-04T18:27:20;122.17;;;24.60;;
8411;SDS011;4243;49.296;11.348;2022-08-04T18:29:55;121.67;;;23.33;;
8411;SDS011;4243;49.296;11.348;2022-08-04T18:32:43;121.40;;;22.97;;
8411;SDS011;4243;49.296;11.348;2022-08-04T18:35:34;121.10;;;22.20;;
8411;SDS011;4243;49.296;11.348;2022-08-04T18:38:22;120.10;;;20.83;;
8411;SDS011;4243;49.296;11.348;2022-08-04T18:40:50;119.10;;;18.57;;
8411;SDS011;4243;49.296;11.348;2022-08-04T18:43:20;119.83;;;19.00;;
8411;SDS011;4243;49.296;11.348;2022-08-04T18:45:56;120.17;;;19.77;;
8411;SDS011;4243;49.296;11.348;2022-08-04T18:48:25;120.13;;;18.30;;
8411;SDS011;4243;49.296;11.348;2022-08-04T18:51:03;120.77;;;19.73;;
8411;SDS011;4243;49.296;11.348;2022-08-04T18:53:49;119.07;;;16.30;;
8411;SDS011;4243;49.296;11.348;2022-08-04T18:56:24;118.50;;;15.20;;
8411;SDS011;4243;49.296;11.348;2022-08-04T18:59:01;121.77;;;21.67;;
8411;SDS011;4243;49.296;11.348;2022-08-04T19:01:35;124.07;;;24.47;;
8411;SDS011;4243;49.296;11.348;2022-08-04T19:04:23;133.47;;;41.57;;
8411;SDS011;4243;49.296;11.348;2022-08-04T19:07:03;139.57;;;49.63;;
8411;SDS011;4243;49.296;11.348;2022-08-04T19:09:51;140.63;;;50.87;;
8411;SDS011;4243;49.296;11.348;2022-08-04T19:12:24;140.67;;;51.30;;
8411;SDS011;4243;49.296;11.348;2022-08-04T19:14:54;137.17;;;45.53;;
8411;SDS011;4243;49.296;11.348;2022-08-04T19:17:24;138.03;;;46.73;;
8411;SDS011;4243;49.296;11.348;2022-08-04T19:20:14;134.73;;;41.63;;
8411;SDS011;4243;49.296;11.348;2022-08-04T19:22:52;133.67;;;39.00;;
8411;SDS011;4243;49.296;11.348;2022-08-04T19:25:41;129.80;;;33.27;;
8411;SDS011;4243;49.296;11.348;2022-08-04T19:28:30;130.17;;;32.50;;
8411;SDS011;4243;49.296;11.348;2022-08-04T19:31:04;129.17;;;32.40;;
8411;SDS011;4243;49.296;11.348;2022-08-04T19:33:34;127.97;;;29.93;;
8411;SDS011;4243;49.296;11.348;2022-08-04T19:36:23;127.27;;;29.27;;
8411;SDS011;4243;49.296;11.348;2022-08-04T19:38:56;124.27;;;23.60;;
8411;SDS011;4243;49.296;11.348;2022-08-04T19:41:27;125.20;;;25.37;;
8411;SDS011;4243;49.296;11.348;2022-08-04T19:43:56;123.00;;;21.30;;
8411;SDS011;4243;49.296;11.348;2022-08-04T19:46:24;124.50;;;23.50;;
8411;SDS011;4243;49.296;11.348;2022-08-04T19:48:54;123.07;;;21.80;;
8411;SDS011;4243;49.296;11.348;2022-08-04T19:51:28;123.67;;;22.30;;
8411;SDS011;4243;49.296;11.348;2022-08-04T19:53:58;122.97;;;20.60;;
8411;SDS011;4243;49.296;11.348;2022-08-04T19:56:29;122.70;;;20.30;;
8411;SDS011;4243;49.296;11.348;2022-08-04T19:59:06;121.37;;;17.50;;
8411;SDS011;4243;49.296;11.348;2022-08-04T20:01:35;120.80;;;16.70;;
8411;SDS011;4243;49.296;11.348;2022-08-04T20:04:11;120.77;;;16.20;;
8411;SDS011;4243;49.296;11.348;2022-08-04T20:06:40;119.60;;;13.50;;
8411;SDS011;4243;49.296;11.348;2022-08-04T20:09:08;121.60;;;17.90;;
8411;SDS011;4243;49.296;11.348;2022-08-04T20:11:55;119.47;;;14.20;;
8411;SDS011;4243;49.296;11.348;2022-08-04T20:14:24;119.67;;;14.30;;
8411;SDS011;4243;49.296;11.348;2022-08-04T20:16:59;119.50;;;12.67;;
8411;SDS011;4243;49.296;11.348;2022-08-04T20:19:35;119.47;;;12.73;;
8411;SDS011;4243;49.296;11.348;2022-08-04T20:22:04;119.70;;;12.77;;
8411;SDS011;4243;49.296;11.348;2022-08-04T20:24:54;118.57;;;11.37;;
8411;SDS011;4243;49.296;11.348;2022-08-04T20:27:42;119.27;;;12.37;;
8411;SDS011;4243;49.296;11.348;2022-08-04T20:30:28;119.87;;;13.87;;
8411;SDS011;4243;49.296;11.348;2022-08-04T20:32:56;121.97;;;15.40;;
8411;SDS011;4243;49.296;11.348;2022-08-04T20:35:27;121.90;;;16.07;;
8411;SDS011;4243;49.296;11.348;2022-08-04T20:37:56;123.03;;;17.40;;